Time;durP1;ratioP1;P1;durP2;ratioP2;P2;SDS_P1;SDS_P2;PMS_P1;PMS_P2;Temp;Humidity;BMP_temperature;BMP_pressure;BME280_temperature;BME280_humidity;BME280_pressure;Samples;Min_cycle;Max_cycle;Signal;HPM_P1;HPM_P2
2022/11/12 00:00:55;;;;;;;14.43;6.80;;;7.00;99.90;;;;;;5067612;28;20040;-85
2022/11/12 00:03:20;;;;;;;12.32;7.22;;;7.00;99.90;;;;;;5089376;28;20111;-85
2022/11/12 00:05:48;;;;;;;12.23;6.47;;;7.00;99.90;;;;;;5104662;28;20042;-85
2022/11/12 00:08:14;;;;;;;12.80;6.88;;;7.00;99.90;;;;;;5080713;28;20040;-85
2022/11/12 00:10:39;;;;;;;11.45;6.50;;;6.90;99.90;;;;;;5103315;28;20557;-86
2022/11/12 00:13:05;;;;;;;13.53;6.90;;;6.90;99.90;;;;;;5103504;28;20035;-84
2022/11/12 00:15:31;;;;;;;12.15;6.75;;;7.00;99.90;;;;;;5103697;28;20043;-85
2022/11/12 00:17:56;;;;;;;11.57;6.43;;;6.90;99.90;;;;;;5103124;28;20075;-85
2022/11/12 00:20:22;;;;;;;11.83;6.77;;;7.70;99.90;;;;;;5083446;28;20453;-85
2022/11/12 00:22:48;;;;;;;13.93;6.87;;;6.90;99.90;;;;;;5068966;28;20119;-85
2022/11/12 00:25:14;;;;;;;14.13;7.70;;;6.80;99.90;;;;;;5072774;28;20055;-84
2022/11/12 00:27:39;;;;;;;12.13;7.35;;;6.80;99.90;;;;;;5099822;28;20360;-84
2022/11/12 00:30:06;;;;;;;14.40;7.33;;;6.90;99.90;;;;;;5087756;28;20035;-85
2022/11/12 00:32:34;;;;;;;;;;;6.80;99.90;;;;;;5083921;28;20078;-85
2022/11/12 00:35:00;;;;;;;13.60;7.22;;;6.80;99.90;;;;;;5100481;28;20010;-85
2022/11/12 00:37:28;;;;;;;11.10;6.97;;;7.10;99.90;;;;;;5085307;28;20040;-85
2022/11/12 00:39:54;;;;;;;14.55;8.02;;;5.80;99.90;;;;;;5107106;28;20032;-85
2022/11/12 00:42:20;;;;;;;11.00;7.20;;;6.70;99.90;;;;;;5088696;28;20048;-85
2022/11/12 00:44:46;;;;;;;12.87;7.53;;;6.70;99.90;;;;;;5087937;28;20278;-85
2022/11/12 00:47:11;;;;;;;13.25;7.82;;;6.70;99.90;;;;;;5110467;28;20063;-84
2022/11/12 00:49:37;;;;;;;17.17;8.20;;;6.60;99.90;;;;;;5109597;28;20047;-84
2022/11/12 00:52:03;;;;;;;13.13;7.77;;;6.60;99.90;;;;;;5105037;28;20342;-83
2022/11/12 00:54:28;;;;;;;13.02;7.07;;;6.60;99.90;;;;;;5082585;28;20035;-85
2022/11/12 00:56:54;;;;;;;13.53;7.77;;;6.60;99.90;;;;;;5074437;28;20066;-85
2022/11/12 00:59:20;;;;;;;14.10;7.90;;;6.60;99.90;;;;;;5101155;28;20321;-85
2022/11/12 01:01:45;;;;;;;14.27;7.63;;;6.60;99.90;;;;;;5087866;28;20036;-85
2022/11/12 01:04:11;;;;;;;13.43;7.60;;;6.60;99.90;;;;;;5069212;28;20075;-76
2022/11/12 01:06:39;;;;;;;14.17;7.87;;;6.60;99.90;;;;;;5065794;28;20081;-76
2022/11/12 01:09:06;;;;;;;13.93;7.60;;;6.60;99.90;;;;;;5100623;28;20288;-76
2022/11/12 01:11:31;;;;;;;15.13;8.35;;;6.60;99.90;;;;;;5062277;28;20109;-76
2022/11/12 01:13:59;;;;;;;16.75;8.95;;;6.60;99.90;;;;;;5067479;28;20035;-77
2022/11/12 01:16:28;;;;;;;14.38;8.20;;;7.60;99.90;;;;;;5103932;28;20054;-77
2022/11/12 01:18:58;;;;;;;14.10;8.38;;;6.50;99.90;;;;;;5079804;28;20036;-76
2022/11/12 01:21:26;;;;;;;13.65;8.40;;;6.50;99.90;;;;;;5081933;28;20036;-77
2022/11/12 01:23:52;;;;;;;14.70;8.70;;;7.30;99.90;;;;;;5095536;28;20035;-77
2022/11/12 01:26:20;;;;;;;14.90;8.70;;;6.50;99.90;;;;;;5081910;28;20398;-76
2022/11/12 01:28:45;;;;;;;18.40;9.48;;;6.50;99.90;;;;;;5099414;28;20458;-77
2022/11/12 01:31:18;;;;;;;16.40;8.88;;;6.50;99.90;;;;;;5079450;28;20079;-76
2022/11/12 01:33:47;;;;;;;15.00;9.15;;;6.50;99.90;;;;;;5100767;28;20036;-77
2022/11/12 01:36:14;;;;;;;15.10;9.00;;;6.50;99.90;;;;;;5087386;28;20047;-76
2022/11/12 01:38:42;;;;;;;17.60;8.98;;;6.60;99.90;;;;;;5089301;28;20421;-77
2022/11/12 01:41:10;;;;;;;16.55;8.75;;;6.50;99.90;;;;;;5096224;28;20044;-77
2022/11/12 01:43:36;;;;;;;17.30;9.10;;;6.50;99.90;;;;;;5096979;28;20108;-77
2022/11/12 01:46:12;;;;;;;14.77;9.25;;;6.70;99.90;;;;;;5084849;28;20040;-77
2022/11/12 01:48:46;;;;;;;15.85;9.52;;;6.50;99.90;;;;;;5102217;28;20035;-77
2022/11/12 01:51:12;;;;;;;17.05;9.30;;;6.50;99.90;;;;;;5103757;28;21665;-77
2022/11/12 01:53:44;;;;;;;19.45;9.63;;;6.50;99.90;;;;;;5083974;28;20047;-77
2022/11/12 01:56:10;;;;;;;15.23;9.00;;;6.50;99.90;;;;;;5084104;28;20137;-77
2022/11/12 01:58:38;;;;;;;17.85;9.40;;;6.50;99.90;;;;;;5101247;28;20039;-77
2022/11/12 02:01:04;;;;;;;16.05;9.68;;;6.50;99.90;;;;;;5100606;28;20032;-76
2022/11/12 02:03:31;;;;;;;15.95;9.70;;;6.50;99.90;;;;;;5104745;28;20031;-85
2022/11/12 02:06:05;;;;;;;19.17;10.65;;;6.40;99.90;;;;;;5082361;28;20114;-85
2022/11/12 02:08:31;;;;;;;16.45;9.32;;;6.50;99.90;;;;;;5083609;28;20499;-85
2022/11/12 02:10:57;;;;;;;;;;;6.50;99.90;;;;;;5084039;28;20499;-85
2022/11/12 02:16:08;;;;;;;18.13;10.50;;;6.40;99.90;;;;;;5089265;28;20101;-85
2022/11/12 02:18:34;;;;;;;17.38;10.55;;;6.40;99.90;;;;;;5091266;28;20039;-85
2022/11/12 02:21:04;;;;;;;16.80;10.10;;;6.40;99.90;;;;;;5086079;28;20036;-85
2022/11/12 02:23:31;;;;;;;16.95;9.50;;;6.30;99.90;;;;;;5087101;28;20324;-85
2022/11/12 02:25:59;;;;;;;17.88;10.07;;;6.30;99.90;;;;;;5071194;28;20059;-85
2022/11/12 02:28:26;;;;;;;18.15;10.73;;;6.30;99.90;;;;;;5085417;28;20038;-85
2022/11/12 02:30:52;;;;;;;16.90;10.18;;;6.30;99.90;;;;;;5089155;28;20759;-85
2022/11/12 02:33:18;;;;;;;21.83;10.88;;;6.30;99.90;;;;;;5085905;28;20068;-85
2022/11/12 02:35:43;;;;;;;22.33;11.50;;;7.00;99.90;;;;;;5100611;28;20403;-85
2022/11/12 02:38:09;;;;;;;19.85;11.70;;;6.30;99.90;;;;;;5102156;28;20068;-84
2022/11/12 02:40:35;;;;;;;21.45;11.65;;;6.30;99.90;;;;;;5085161;28;20071;-84
2022/11/12 02:43:01;;;;;;;20.75;11.02;;;7.00;99.90;;;;;;5070267;28;20487;-84
2022/11/12 02:45:27;;;;;;;18.10;10.50;;;6.60;99.90;;;;;;5085303;28;20441;-85
2022/11/12 02:47:53;;;;;;;19.70;10.43;;;6.90;99.90;;;;;;5086634;28;20472;-85
2022/11/12 02:50:19;;;;;;;19.77;11.03;;;6.20;99.90;;;;;;5090510;28;20043;-85
2022/11/12 02:52:44;;;;;;;20.63;11.75;;;6.20;99.90;;;;;;5108905;28;20123;-85
2022/11/12 02:55:11;;;;;;;19.83;11.75;;;6.70;99.90;;;;;;5102304;28;20122;-85
2022/11/12 02:57:38;;;;;;;19.80;12.05;;;6.20;99.90;;;;;;5087216;28;20133;-84
2022/11/12 03:00:08;;;;;;;19.17;10.75;;;6.10;99.90;;;;;;5100844;28;20035;-84
2022/11/12 03:02:33;;;;;;;20.85;12.48;;;6.10;99.90;;;;;;5085058;28;20027;-84
2022/11/12 03:04:59;;;;;;;19.38;11.65;;;6.70;99.90;;;;;;5079373;28;20046;-84
2022/11/12 03:07:25;;;;;;;23.13;11.77;;;6.10;99.90;;;;;;5085741;28;20024;-84
2022/11/12 03:09:50;;;;;;;18.87;10.73;;;6.10;99.90;;;;;;5069090;28;20466;-84
2022/11/12 03:12:16;;;;;;;19.65;11.40;;;6.00;99.90;;;;;;5091751;28;20055;-84
2022/11/12 03:14:42;;;;;;;16.77;10.82;;;6.00;99.90;;;;;;5082593;28;20067;-84
2022/11/12 03:17:08;;;;;;;23.48;12.07;;;6.00;99.90;;;;;;5082122;28;20042;-84
2022/11/12 03:19:33;;;;;;;22.65;11.90;;;6.00;99.90;;;;;;5085931;28;20036;-84
2022/11/12 03:21:59;;;;;;;20.97;11.37;;;6.00;99.90;;;;;;5105281;28;20115;-84
2022/11/12 03:24:25;;;;;;;18.40;11.00;;;6.00;99.90;;;;;;5067952;28;20043;-84
2022/11/12 03:26:50;;;;;;;18.63;10.30;;;6.00;99.90;;;;;;5081839;28;20042;-84
2022/11/12 03:29:16;;;;;;;20.83;12.10;;;6.00;99.90;;;;;;5086669;28;20282;-84
2022/11/12 03:31:42;;;;;;;21.13;11.43;;;5.90;99.90;;;;;;5104042;28;20040;-84
2022/11/12 03:34:07;;;;;;;20.60;11.97;;;5.90;99.90;;;;;;5103599;28;20039;-84
2022/11/12 03:36:33;;;;;;;20.33;11.90;;;6.40;99.90;;;;;;5081912;28;20095;-84
2022/11/12 03:38:59;;;;;;;21.97;12.30;;;6.20;99.90;;;;;;5098320;28;20290;-84
2022/11/12 03:41:24;;;;;;;22.53;12.30;;;6.00;99.90;;;;;;5086310;28;20054;-84
2022/11/12 03:43:50;;;;;;;24.55;13.18;;;5.90;99.90;;;;;;5086800;28;20492;-84
2022/11/12 03:46:16;;;;;;;25.23;12.77;;;5.90;99.90;;;;;;5098727;28;20044;-84
2022/11/12 03:48:41;;;;;;;23.90;14.00;;;6.50;99.90;;;;;;5105778;28;20028;-84
2022/11/12 03:51:07;;;;;;;23.80;13.10;;;5.90;99.90;;;;;;5084521;28;20777;-84
2022/11/12 03:53:33;;;;;;;25.30;13.20;;;5.90;99.90;;;;;;5067503;28;20095;-84
2022/11/12 03:55:58;;;;;;;23.87;13.63;;;5.90;99.90;;;;;;5098336;28;21199;-85
2022/11/12 03:58:24;;;;;;;24.07;13.17;;;6.30;99.90;;;;;;5101218;28;20062;-85
2022/11/12 04:00:50;;;;;;;23.37;13.23;;;6.10;99.90;;;;;;5087130;28;20031;-84
2022/11/12 04:03:15;;;;;;;29.52;14.25;;;6.00;99.90;;;;;;5068071;28;20081;-84
2022/11/12 04:08:37;;;;;;;21.42;12.93;;;5.80;99.90;;;;;;5084425;28;20074;-84
2022/11/12 04:11:09;;;;;;;24.52;13.85;;;5.80;99.90;;;;;;5071234;28;20119;-84
2022/11/12 04:13:37;;;;;;;23.00;12.15;;;5.70;99.90;;;;;;5099340;28;20129;-84
2022/11/12 04:22:03;;;;;;;24.33;13.88;;;5.60;99.90;;;;;;5098507;28;20122;-84
2022/11/12 04:27:25;;;;;;;24.58;13.18;;;5.60;99.90;;;;;;5098948;28;20124;-84
2022/11/12 04:32:44;;;;;;;22.73;13.52;;;5.60;99.90;;;;;;5098350;28;20040;-84
2022/11/12 04:35:10;;;;;;;25.05;13.60;;;5.60;99.90;;;;;;5097952;28;20039;-84
2022/11/12 04:37:45;;;;;;;24.85;14.30;;;5.60;99.90;;;;;;5103956;28;20513;-84
2022/11/12 04:45:56;;;;;;;25.83;14.55;;;5.50;99.90;;;;;;5095504;28;20088;-84
2022/11/12 04:48:24;;;;;;;25.85;14.00;;;5.60;99.90;;;;;;5098762;28;20036;-84
2022/11/12 04:50:54;;;;;;;26.63;14.23;;;5.50;99.90;;;;;;5099328;28;20039;-84
2022/11/12 04:53:20;;;;;;;27.42;15.65;;;5.90;99.90;;;;;;5105846;28;20047;-84
2022/11/12 04:55:53;;;;;;;25.30;14.30;;;5.50;99.90;;;;;;5078987;28;20047;-84
2022/11/12 04:58:19;;;;;;;27.38;14.43;;;5.50;99.90;;;;;;5097897;28;20036;-84
2022/11/12 05:00:45;;;;;;;27.13;15.75;;;5.50;99.90;;;;;;5105476;28;20756;-84
2022/11/12 05:03:11;;;;;;;26.05;15.25;;;5.60;99.90;;;;;;5083492;28;20180;-84
2022/11/12 05:05:37;;;;;;;28.17;16.05;;;5.70;99.90;;;;;;5085179;28;20471;-84
2022/11/12 05:08:02;;;;;;;30.37;15.57;;;5.60;99.90;;;;;;5083491;28;20039;-84
2022/11/12 05:10:29;;;;;;;25.00;14.93;;;5.70;99.90;;;;;;5086904;28;20036;-85
2022/11/12 05:12:55;;;;;;;;;;;5.70;99.90;;;;;;5104479;28;20845;-84
2022/11/12 05:15:20;;;;;;;26.05;14.70;;;6.00;99.90;;;;;;5103901;28;19924;-84
2022/11/12 05:17:46;;;;;;;22.85;13.43;;;5.70;99.90;;;;;;5088127;28;20043;-84
2022/11/12 05:20:13;;;;;;;23.38;13.77;;;5.70;99.90;;;;;;5088549;28;20086;-84
2022/11/12 05:22:39;;;;;;;27.15;15.05;;;5.60;99.90;;;;;;5089126;28;20035;-84
2022/11/12 05:25:06;;;;;;;24.57;14.50;;;5.70;99.90;;;;;;5087220;28;20040;-84
2022/11/12 05:27:33;;;;;;;27.27;15.18;;;5.60;99.90;;;;;;5100876;28;20274;-84
2022/11/12 05:29:58;;;;;;;27.25;15.30;;;5.90;99.90;;;;;;5106989;28;20084;-84
2022/11/12 05:32:25;;;;;;;25.52;14.55;;;5.60;99.90;;;;;;5089516;28;20115;-85
2022/11/12 05:34:51;;;;;;;28.02;13.85;;;5.60;99.90;;;;;;5106965;28;20419;-84
2022/11/12 05:37:17;;;;;;;21.92;12.32;;;5.60;99.90;;;;;;5087051;28;20043;-84
2022/11/12 05:39:42;;;;;;;26.50;14.37;;;5.50;99.90;;;;;;5101680;28;20047;-85
2022/11/12 05:42:08;;;;;;;23.80;14.20;;;5.50;99.90;;;;;;5072033;28;20071;-84
2022/11/12 05:44:34;;;;;;;24.87;13.53;;;6.70;99.90;;;;;;5067429;28;20047;-84
2022/11/12 05:47:00;;;;;;;26.75;13.82;;;5.50;99.90;;;;;;5084189;28;20331;-84
2022/11/12 05:49:25;;;;;;;25.25;14.75;;;5.50;99.90;;;;;;5098474;28;20038;-85
2022/11/12 05:51:51;;;;;;;22.50;14.18;;;6.30;99.90;;;;;;5100841;28;20499;-84
2022/11/12 05:54:17;;;;;;;27.83;14.60;;;5.40;99.90;;;;;;5072216;28;20047;-84
2022/11/12 05:56:43;;;;;;;31.73;15.10;;;5.40;99.90;;;;;;5084470;28;20326;-84
2022/11/12 05:59:11;;;;;;;28.75;14.90;;;5.30;99.90;;;;;;5085409;28;20051;-84
2022/11/12 06:01:42;;;;;;;25.17;15.23;;;5.40;99.90;;;;;;5086307;28;20398;-84
2022/11/12 06:04:10;;;;;;;27.00;15.55;;;5.40;99.90;;;;;;5100908;28;20036;-85
2022/11/12 06:06:36;;;;;;;38.17;17.38;;;5.30;99.90;;;;;;5102128;28;20115;-84
2022/11/12 06:09:03;;;;;;;28.85;16.15;;;5.30;99.90;;;;;;5086102;28;20092;-84
2022/11/12 06:11:28;;;;;;;27.38;14.93;;;5.30;99.90;;;;;;5100348;28;20040;-84
2022/11/12 06:13:54;;;;;;;26.23;14.90;;;5.30;99.90;;;;;;5105358;28;20039;-84
2022/11/12 06:16:20;;;;;;;26.80;14.73;;;5.20;99.90;;;;;;5085673;28;20394;-85
2022/11/12 06:18:45;;;;;;;33.60;15.73;;;5.20;99.90;;;;;;5106777;28;20512;-85
2022/11/12 06:21:23;;;;;;;29.13;14.97;;;5.20;99.90;;;;;;5088267;28;20143;-84
2022/11/12 06:23:57;;;;;;;25.75;15.73;;;5.20;99.90;;;;;;5101635;28;20043;-84
2022/11/12 06:26:25;;;;;;;29.70;15.13;;;5.20;99.90;;;;;;5067081;28;20040;-84
2022/11/12 06:28:51;;;;;;;29.35;15.70;;;5.10;99.90;;;;;;5102439;28;20062;-86
2022/11/12 06:31:17;;;;;;;26.08;14.50;;;5.10;99.90;;;;;;5100361;28;20035;-86
2022/11/12 06:33:44;;;;;;;28.23;15.20;;;5.30;99.90;;;;;;5100538;28;20491;-85
2022/11/12 06:36:11;;;;;;;24.20;14.65;;;5.10;99.90;;;;;;5103171;28;20040;-85
2022/11/12 06:38:38;;;;;;;29.17;15.65;;;5.50;99.90;;;;;;5084806;28;20166;-86
2022/11/12 06:41:05;;;;;;;28.63;14.52;;;5.70;99.90;;;;;;5088143;28;20412;-85
2022/11/12 06:43:32;;;;;;;31.33;14.70;;;5.00;99.90;;;;;;5070755;28;20510;-85
2022/11/12 06:46:20;;;;;;;21.63;12.27;;;5.00;99.90;;;;;;5082833;28;20044;-85
2022/11/12 06:48:45;;;;;;;;;;;5.00;99.90;;;;;;5081986;28;20038;-85
2022/11/12 06:51:17;;;;;;;78.88;14.05;;;4.90;99.90;;;;;;5073580;28;19919;-84
2022/11/12 06:53:43;;;;;;;187.55;17.20;;;4.80;99.90;;;;;;5083185;28;20039;-83
2022/11/12 06:56:09;;;;;;;138.45;16.73;;;5.50;99.90;;;;;;5085095;28;20059;-85
2022/11/12 06:58:35;;;;;;;144.82;15.43;;;4.80;99.90;;;;;;5103257;28;20074;-84
2022/11/12 07:01:06;;;;;;;143.45;16.70;;;4.70;99.90;;;;;;5101447;28;20055;-84
2022/11/12 07:03:32;;;;;;;215.35;20.20;;;4.70;99.90;;;;;;5084601;28;20051;-85
2022/11/12 07:06:03;;;;;;;193.40;15.95;;;4.70;99.90;;;;;;5104186;28;20031;-85
2022/11/12 07:08:29;;;;;;;160.05;16.13;;;5.30;99.90;;;;;;5099081;28;20060;-84
2022/11/12 07:10:58;;;;;;;177.90;19.47;;;4.80;99.90;;;;;;5091737;28;20094;-85
2022/11/12 07:13:24;;;;;;;187.48;17.80;;;4.90;99.90;;;;;;5066060;28;20042;-85
2022/11/12 07:15:50;;;;;;;144.13;15.23;;;4.90;99.90;;;;;;5100140;28;20035;-84
2022/11/12 07:18:16;;;;;;;92.20;18.40;;;4.90;99.90;;;;;;5084118;28;20695;-83
2022/11/12 07:20:41;;;;;;;119.18;16.88;;;4.90;99.90;;;;;;5095875;28;20734;-82
2022/11/12 07:23:07;;;;;;;90.95;17.23;;;5.40;99.90;;;;;;5099670;28;20040;-81
2022/11/12 07:25:33;;;;;;;96.70;15.57;;;5.00;99.90;;;;;;5098755;28;20031;-80
2022/11/12 07:27:58;;;;;;;151.07;19.40;;;5.60;99.90;;;;;;5069910;28;20034;-82
2022/11/12 07:30:24;;;;;;;181.63;20.40;;;5.20;99.90;;;;;;5086794;28;20122;-82
2022/11/12 07:32:49;;;;;;;300.50;28.50;;;5.20;99.90;;;;;;5084150;28;20492;-81
2022/11/12 07:35:15;;;;;;;147.27;20.80;;;5.30;99.90;;;;;;5080614;28;20811;-81
2022/11/12 07:37:41;;;;;;;170.88;22.40;;;5.30;99.90;;;;;;5100357;28;20036;-81
2022/11/12 07:40:07;;;;;;;266.57;27.77;;;6.10;99.90;;;;;;5102995;28;20046;-81
2022/11/12 07:42:34;;;;;;;146.68;21.95;;;5.50;99.90;;;;;;5082581;28;20052;-81
2022/11/12 07:45:00;;;;;;;151.50;22.77;;;5.60;99.90;;;;;;5085402;28;20035;-79
2022/11/12 07:47:26;;;;;;;135.15;20.90;;;5.60;99.90;;;;;;5101513;28;20478;-81
2022/11/12 07:49:51;;;;;;;175.52;26.27;;;5.90;99.90;;;;;;5088255;28;20081;-81
2022/11/12 07:52:17;;;;;;;179.57;25.43;;;5.60;99.90;;;;;;5080254;28;20495;-80
2022/11/12 07:54:43;;;;;;;147.02;23.92;;;5.70;99.90;;;;;;5080942;28;20048;-80
2022/11/12 07:57:08;;;;;;;153.63;26.00;;;5.80;99.90;;;;;;5095917;28;20151;-81
2022/11/12 07:59:34;;;;;;;108.47;22.33;;;5.80;99.90;;;;;;5082999;28;20111;-80
2022/11/12 08:02:00;;;;;;;143.10;23.87;;;5.90;99.90;;;;;;5082361;28;20552;-80
2022/11/12 08:04:26;;;;;;;159.80;24.83;;;5.90;99.90;;;;;;5100239;28;20275;-80
2022/11/12 08:06:51;;;;;;;299.27;35.22;;;6.00;99.90;;;;;;5097198;28;20061;-80
2022/11/12 08:09:17;;;;;;;141.60;24.87;;;6.00;99.90;;;;;;5095308;28;20495;-80
2022/11/12 08:11:43;;;;;;;150.45;23.13;;;6.10;99.90;;;;;;5078824;28;20483;-81
2022/11/12 08:14:09;;;;;;;137.25;24.15;;;6.10;99.90;;;;;;5079126;28;20101;-79
2022/11/12 08:16:34;;;;;;;164.67;28.07;;;6.20;99.90;;;;;;5068313;28;20093;-80
2022/11/12 08:19:00;;;;;;;272.03;33.97;;;6.20;99.90;;;;;;5099902;28;20301;-80
2022/11/12 08:21:26;;;;;;;162.57;27.60;;;6.30;99.90;;;;;;5082638;28;20446;-80
2022/11/12 08:23:52;;;;;;;185.25;27.15;;;6.30;99.90;;;;;;5104801;28;20035;-80
2022/11/12 08:26:19;;;;;;;209.93;28.00;;;6.50;99.90;;;;;;5102918;28;20040;-81
2022/11/12 08:28:45;;;;;;;229.95;30.05;;;6.60;99.90;;;;;;5100754;28;20694;-81
2022/11/12 08:31:12;;;;;;;263.77;31.40;;;6.40;99.90;;;;;;5097128;28;20047;-80
2022/11/12 08:33:38;;;;;;;236.52;33.55;;;6.50;99.90;;;;;;5106155;28;20039;-81
2022/11/12 08:36:07;;;;;;;162.10;28.20;;;6.60;99.90;;;;;;5102069;28;20036;-82
2022/11/12 08:38:33;;;;;;;244.95;31.83;;;6.60;99.90;;;;;;5095287;28;20036;-81
2022/11/12 08:41:00;;;;;;;250.98;33.17;;;6.70;99.90;;;;;;5101255;28;20089;-86
2022/11/12 08:43:26;;;;;;;205.02;30.30;;;6.70;99.90;;;;;;5082803;28;20040;-83
2022/11/12 08:45:51;;;;;;;166.05;27.35;;;6.80;99.90;;;;;;5101283;28;20489;-84
2022/11/12 08:48:17;;;;;;;152.67;27.17;;;6.80;99.90;;;;;;5061995;28;20085;-83
2022/11/12 08:50:43;;;;;;;193.53;31.23;;;6.80;99.90;;;;;;5098342;28;20365;-82
2022/11/12 08:53:11;;;;;;;123.37;24.53;;;7.40;99.90;;;;;;5072023;28;20754;-83
2022/11/12 08:55:37;;;;;;;141.82;26.58;;;6.90;99.90;;;;;;5105189;28;20036;-83
2022/11/12 08:58:03;;;;;;;129.02;24.38;;;6.90;99.90;;;;;;5102932;28;20040;-83
2022/11/12 09:00:33;;;;;;;132.02;24.88;;;7.00;99.90;;;;;;5061634;28;20114;-83
2022/11/12 09:03:03;;;;;;;217.27;31.88;;;7.00;99.90;;;;;;5087942;28;20036;-84
2022/11/12 09:05:29;;;;;;;192.48;30.45;;;7.00;99.90;;;;;;5106438;28;20032;-83
2022/11/12 09:07:59;;;;;;;264.15;36.15;;;7.10;99.90;;;;;;5096173;28;20040;-82
2022/11/12 09:10:26;;;;;;;117.47;25.35;;;7.10;99.90;;;;;;5085702;28;20142;-83
2022/11/12 09:12:53;;;;;;;108.18;25.77;;;7.10;99.90;;;;;;5097207;28;20531;-84
2022/11/12 09:15:19;;;;;;;142.52;27.30;;;7.20;99.90;;;;;;5059232;28;20484;-83
2022/11/12 09:17:45;;;;;;;161.00;28.70;;;7.20;99.90;;;;;;5102410;28;20040;-82
2022/11/12 09:20:11;;;;;;;179.37;28.47;;;7.20;99.90;;;;;;5110127;28;20061;-83
2022/11/12 09:22:37;;;;;;;159.15;27.90;;;7.30;99.90;;;;;;5094677;28;20064;-83
2022/11/12 09:25:02;;;;;;;161.88;28.27;;;7.40;99.90;;;;;;5102426;28;20481;-83
2022/11/12 09:27:28;;;;;;;119.00;25.92;;;7.40;99.90;;;;;;5066356;28;20437;-82
2022/11/12 09:29:54;;;;;;;165.07;27.45;;;7.50;99.90;;;;;;5087637;28;20057;-83
2022/11/12 09:32:20;;;;;;;152.48;25.65;;;7.80;99.90;;;;;;5102910;28;20040;-81
2022/11/12 09:34:45;;;;;;;187.73;28.03;;;7.50;99.90;;;;;;5080107;28;20036;-83
2022/11/12 09:37:11;;;;;;;121.93;26.07;;;7.50;99.90;;;;;;5102813;28;20307;-82
2022/11/12 09:39:37;;;;;;;162.87;28.47;;;7.60;99.90;;;;;;5067267;28;20083;-83
2022/11/12 09:42:07;;;;;;;154.60;27.50;;;7.60;99.90;;;;;;5053240;28;20036;-84
2022/11/12 09:44:36;;;;;;;179.88;27.60;;;7.70;99.90;;;;;;5084516;28;20292;-82
2022/11/12 09:47:19;;;;;;;153.25;26.10;;;8.00;99.90;;;;;;5104641;28;20109;-85
2022/11/12 09:49:54;;;;;;;170.93;25.38;;;7.80;99.90;;;;;;5085786;28;20051;-86
2022/11/12 09:52:28;;;;;;;221.50;31.67;;;7.10;99.90;;;;;;5104397;28;20132;-84
2022/11/12 09:55:06;;;;;;;308.50;35.63;;;7.80;99.90;;;;;;5103944;28;20044;-85
2022/11/12 09:57:32;;;;;;;153.73;28.08;;;8.00;99.90;;;;;;5097940;28;20384;-83
2022/11/12 09:59:58;;;;;;;198.80;29.45;;;7.80;99.90;;;;;;5106707;28;20043;-82
2022/11/12 10:02:30;;;;;;;195.73;28.70;;;7.90;99.90;;;;;;5104620;28;20043;-83
2022/11/12 10:05:09;;;;;;;151.40;26.58;;;7.90;99.90;;;;;;5094189;28;20039;-84
2022/11/12 10:07:35;;;;;;;153.60;29.15;;;7.80;99.90;;;;;;5101809;28;20497;-84
2022/11/12 10:10:19;;;;;;;120.97;26.93;;;7.80;99.90;;;;;;5104461;28;20070;-83
2022/11/12 10:13:07;;;;;;;178.52;31.40;;;7.90;99.90;;;;;;5087370;28;20032;-83
2022/11/12 10:16:52;;;;;;;156.70;28.70;;;7.90;99.90;;;;;;5102969;28;20064;-82
2022/11/12 10:19:36;;;;;;;138.77;26.42;;;7.90;99.90;;;;;;5080244;28;20036;-81
2022/11/12 10:22:22;;;;;;;106.55;22.45;;;7.90;99.90;;;;;;5076973;28;20455;-81
2022/11/12 10:24:48;;;;;;;118.07;23.83;;;8.00;99.90;;;;;;5103352;28;20046;-80
2022/11/12 10:27:19;;;;;;;130.50;26.02;;;8.00;99.90;;;;;;5098925;28;20035;-82
2022/11/12 10:30:00;;;;;;;185.23;32.63;;;8.00;99.90;;;;;;5095565;28;20040;-81
2022/11/12 10:32:26;;;;;;;122.63;24.95;;;8.00;99.90;;;;;;5100118;28;20039;-82
2022/11/12 10:34:51;;;;;;;112.97;23.95;;;8.00;99.90;;;;;;5086570;28;20174;-84
2022/11/12 10:37:47;;;;;;;129.57;23.07;;;8.00;99.90;;;;;;5101422;28;20039;-82
2022/11/12 10:40:39;;;;;;;104.43;26.13;;;8.00;99.90;;;;;;5055644;28;20298;-83
2022/11/12 10:43:17;;;;;;;91.15;24.33;;;8.00;99.90;;;;;;5085203;28;20174;-83
2022/11/12 10:45:47;;;;;;;163.32;30.92;;;8.00;99.90;;;;;;5081703;28;20044;-83
2022/11/12 10:48:29;;;;;;;80.38;23.15;;;8.10;99.90;;;;;;5086607;28;20063;-83
2022/11/12 10:50:55;;;;;;;86.30;21.58;;;8.10;99.90;;;;;;5083653;28;20122;-83
2022/11/12 10:53:47;;;;;;;90.28;24.45;;;8.20;99.90;;;;;;5086359;28;20170;-83
2022/11/12 10:56:29;;;;;;;80.53;24.02;;;8.20;99.90;;;;;;5104723;28;20082;-84
2022/11/12 10:59:17;;;;;;;81.70;25.63;;;8.20;99.90;;;;;;5101871;28;20036;-82
2022/11/12 11:01:44;;;;;;;97.45;26.45;;;8.20;99.90;;;;;;5091698;28;20036;-81
2022/11/12 11:04:36;;;;;;;78.00;23.52;;;8.20;99.90;;;;;;5106633;28;20063;-82
2022/11/12 11:07:20;;;;;;;75.20;23.55;;;8.30;99.90;;;;;;5097065;28;20039;-82
2022/11/12 11:09:56;;;;;;;92.43;24.20;;;8.20;99.90;;;;;;5097810;28;20032;-83
2022/11/12 11:12:31;;;;;;;73.82;21.20;;;8.20;99.90;;;;;;5092920;28;20140;-82
2022/11/12 11:15:14;;;;;;;75.65;23.42;;;8.30;99.90;;;;;;5095307;28;20036;-81
2022/11/12 11:17:40;;;;;;;86.00;24.20;;;8.30;99.90;;;;;;5102249;28;20048;-82
2022/11/12 11:20:27;;;;;;;66.73;22.20;;;8.30;99.90;;;;;;5103266;28;20151;-82
2022/11/12 11:23:05;;;;;;;99.28;22.83;;;8.40;99.90;;;;;;5102822;28;20078;-82
2022/11/12 11:25:33;;;;;;;79.53;22.67;;;8.40;99.90;;;;;;5083380;28;20074;-83
2022/11/12 11:28:32;;;;;;;40.28;19.40;;;8.40;99.90;;;;;;5092506;28;20488;-83
2022/11/12 11:31:22;;;;;;;65.40;25.67;;;8.50;99.90;;;;;;5084384;28;20093;-80
2022/11/12 11:34:03;;;;;;;50.42;21.95;;;8.50;99.90;;;;;;5083815;28;20048;-80
2022/11/12 11:37:00;;;;;;;46.08;22.17;;;8.60;99.90;;;;;;5099880;28;20073;-80
2022/11/12 11:39:35;;;;;;;37.03;18.63;;;8.60;99.90;;;;;;5057246;28;20403;-83
2022/11/12 11:42:24;;;;;;;46.20;20.95;;;8.50;99.90;;;;;;5097533;28;20719;-83
2022/11/12 11:44:55;;;;;;;55.75;24.25;;;8.60;99.90;;;;;;5094671;28;20144;-83
2022/11/12 11:47:41;;;;;;;62.13;24.13;;;8.70;99.90;;;;;;5101913;28;20042;-83
2022/11/12 11:50:25;;;;;;;39.92;21.58;;;8.70;99.90;;;;;;5095053;28;20039;-85
2022/11/12 11:52:59;;;;;;;49.13;22.00;;;8.70;99.90;;;;;;5099700;28;20050;-84
2022/11/12 11:55:37;;;;;;;44.83;21.25;;;8.70;99.90;;;;;;5082818;28;20059;-83
2022/11/12 11:58:30;;;;;;;50.53;23.92;;;8.70;99.90;;;;;;5086169;28;20100;-86
2022/11/12 12:01:02;;;;;;;43.55;23.42;;;8.80;99.90;;;;;;5080474;28;20511;-83
2022/11/12 12:03:53;;;;;;;42.58;22.75;;;8.80;99.90;;;;;;5094719;28;20032;-86
2022/11/12 12:06:23;;;;;;;47.58;23.08;;;8.80;99.90;;;;;;5099872;28;20036;-81
2022/11/12 12:09:13;;;;;;;43.13;22.08;;;8.80;99.90;;;;;;5097187;28;20067;-85
2022/11/12 12:12:04;;;;;;;43.97;23.27;;;8.90;99.90;;;;;;5096942;28;20044;-83
2022/11/12 12:14:55;;;;;;;43.92;23.45;;;8.90;99.90;;;;;;5108533;28;20476;-85
2022/11/12 12:18:00;;;;;;;43.33;23.83;;;8.90;99.90;;;;;;5108192;28;20398;-83
2022/11/12 12:20:42;;;;;;;43.38;23.50;;;9.00;99.90;;;;;;5103796;28;20075;-84
2022/11/12 12:23:40;;;;;;;42.13;23.48;;;9.00;99.90;;;;;;5081756;28;20115;-84
2022/11/12 12:26:30;;;;;;;39.67;21.52;;;9.10;99.90;;;;;;5098997;28;20518;-83
2022/11/12 12:29:01;;;;;;;41.97;22.40;;;9.20;99.90;;;;;;5104500;28;20040;-83
2022/11/12 12:31:34;;;;;;;39.50;21.67;;;9.30;99.90;;;;;;5098989;28;20468;-83
2022/11/12 12:34:04;;;;;;;41.10;23.42;;;9.40;99.90;;;;;;5105731;28;20123;-83
2022/11/12 12:36:35;;;;;;;35.55;22.67;;;9.60;99.90;;;;;;5084257;28;20061;-83
2022/11/12 12:39:16;;;;;;;35.15;22.75;;;9.80;99.90;;;;;;5103236;28;20042;-83
2022/11/12 12:42:05;;;;;;;37.72;22.55;;;9.70;99.90;;;;;;5083508;28;20036;-83
2022/11/12 12:45:00;;;;;;;35.92;21.60;;;9.70;99.90;;;;;;5102040;28;20055;-83
2022/11/12 12:47:42;;;;;;;38.72;22.48;;;9.70;99.90;;;;;;5099456;28;20055;-84
2022/11/12 12:50:14;;;;;;;34.95;21.30;;;9.60;99.90;;;;;;5085248;28;20036;-83
2022/11/12 12:53:02;;;;;;;30.95;20.05;;;9.70;99.90;;;;;;5098372;28;20039;-83
2022/11/12 12:55:46;;;;;;;33.33;19.85;;;9.70;99.90;;;;;;5086092;28;20403;-83
2022/11/12 12:58:28;;;;;;;32.05;19.92;;;9.70;99.90;;;;;;5098315;28;20040;-83
2022/11/12 13:01:20;;;;;;;32.28;20.23;;;9.90;99.90;;;;;;5093010;28;20036;-83
2022/11/12 13:04:02;;;;;;;30.58;20.00;;;9.90;99.90;;;;;;5094142;28;20264;-83
2022/11/12 13:06:34;;;;;;;33.28;20.70;;;10.00;99.90;;;;;;5100443;28;20457;-83
2022/11/12 13:09:05;;;;;;;35.10;20.63;;;10.00;99.90;;;;;;5102220;28;20400;-83
2022/11/12 13:14:36;;;;;;;33.03;20.38;;;10.10;99.90;;;;;;5099885;28;20036;-83
2022/11/12 13:17:10;;;;;;;32.38;20.33;;;10.10;99.90;;;;;;5101639;28;20534;-83